Terminal Aerodrome Forecast
Issued by NWS Shreveport, LA

Home | Current Version | Previous Version | Text Only | Print | Product List | Glossary On
Versions: 1 2 3 4 5 6 7 8 9 10 11 12 13 14 15 16
000
FTUS44 KSHV 220556
TAFLFK
TAF
KLFK 220556Z 2206/2306 00000KT P6SM OVC008
      TEMPO 2207/2211 5SM BR SCT008 OVC010
     FM221100 18007KT P6SM VCTS OVC015CB
      TEMPO 2211/2214 VRB15G30KT 2SM -TSRA BKN015CB
     FM221400 28008KT P6SM -TSRA OVC015CB
     FM221600 31009G15KT P6SM OVC015
     FM221800 33008G14KT P6SM BKN050=

USA.gov is the U.S. government's official web portal to all federal, state and local government web resources and services.